sensor_id;sensor_type;location;lat;lon;timestamp;P1;durP1;ratioP1;P2;durP2;ratioP2
72524;SDS011;60547;48.502;8.996;2023-01-28T00:01:16;14.32;;;7.55;;
72524;SDS011;60547;48.502;8.996;2023-01-28T00:03:54;13.43;;;6.75;;
72524;SDS011;60547;48.502;8.996;2023-01-28T00:06:22;11.95;;;6.80;;
72524;SDS011;60547;48.502;8.996;2023-01-28T00:08:50;12.75;;;6.70;;
72524;SDS011;60547;48.502;8.996;2023-01-28T00:11:15;10.75;;;6.45;;
72524;SDS011;60547;48.502;8.996;2023-01-28T00:13:43;11.48;;;7.32;;
72524;SDS011;60547;48.502;8.996;2023-01-28T00:16:09;12.05;;;6.82;;
72524;SDS011;60547;48.502;8.996;2023-01-28T00:18:38;13.98;;;7.35;;
72524;SDS011;60547;48.502;8.996;2023-01-28T00:21:10;13.00;;;6.75;;
72524;SDS011;60547;48.502;8.996;2023-01-28T00:23:40;11.05;;;6.32;;
72524;SDS011;60547;48.502;8.996;2023-01-28T00:26:10;11.98;;;6.45;;
72524;SDS011;60547;48.502;8.996;2023-01-28T00:28:40;11.40;;;6.28;;
72524;SDS011;60547;48.502;8.996;2023-01-28T00:31:07;13.27;;;6.97;;
72524;SDS011;60547;48.502;8.996;2023-01-28T00:33:43;11.85;;;5.95;;
72524;SDS011;60547;48.502;8.996;2023-01-28T00:36:15;13.05;;;6.47;;
72524;SDS011;60547;48.502;8.996;2023-01-28T00:38:42;16.27;;;7.28;;
72524;SDS011;60547;48.502;8.996;2023-01-28T00:41:08;12.57;;;6.40;;
72524;SDS011;60547;48.502;8.996;2023-01-28T00:43:44;13.40;;;6.60;;
72524;SDS011;60547;48.502;8.996;2023-01-28T00:46:10;11.02;;;6.55;;
72524;SDS011;60547;48.502;8.996;2023-01-28T00:48:36;10.73;;;6.28;;
72524;SDS011;60547;48.502;8.996;2023-01-28T00:51:03;11.15;;;7.05;;
72524;SDS011;60547;48.502;8.996;2023-01-28T00:53:29;13.65;;;6.97;;
72524;SDS011;60547;48.502;8.996;2023-01-28T00:55:55;11.95;;;5.85;;
72524;SDS011;60547;48.502;8.996;2023-01-28T00:58:20;12.18;;;7.05;;
72524;SDS011;60547;48.502;8.996;2023-01-28T01:00:48;13.55;;;7.10;;
72524;SDS011;60547;48.502;8.996;2023-01-28T01:03:15;11.90;;;6.78;;
72524;SDS011;60547;48.502;8.996;2023-01-28T01:05:41;12.80;;;6.90;;
72524;SDS011;60547;48.502;8.996;2023-01-28T01:08:07;14.63;;;7.18;;
72524;SDS011;60547;48.502;8.996;2023-01-28T01:10:32;14.65;;;7.20;;
72524;SDS011;60547;48.502;8.996;2023-01-28T01:12:58;12.93;;;6.60;;
72524;SDS011;60547;48.502;8.996;2023-01-28T01:15:24;11.88;;;6.63;;
72524;SDS011;60547;48.502;8.996;2023-01-28T01:17:50;10.70;;;6.35;;
72524;SDS011;60547;48.502;8.996;2023-01-28T01:20:17;12.77;;;6.97;;
72524;SDS011;60547;48.502;8.996;2023-01-28T01:22:44;11.90;;;6.82;;
72524;SDS011;60547;48.502;8.996;2023-01-28T01:25:11;12.48;;;6.60;;
72524;SDS011;60547;48.502;8.996;2023-01-28T01:27:38;10.88;;;6.05;;
72524;SDS011;60547;48.502;8.996;2023-01-28T01:30:03;14.55;;;7.72;;
72524;SDS011;60547;48.502;8.996;2023-01-28T01:32:30;12.32;;;7.28;;
72524;SDS011;60547;48.502;8.996;2023-01-28T01:34:56;13.23;;;6.85;;
72524;SDS011;60547;48.502;8.996;2023-01-28T01:37:22;13.38;;;7.03;;
72524;SDS011;60547;48.502;8.996;2023-01-28T01:39:50;12.70;;;6.68;;
72524;SDS011;60547;48.502;8.996;2023-01-28T01:42:16;12.25;;;6.22;;
72524;SDS011;60547;48.502;8.996;2023-01-28T01:44:46;13.43;;;7.05;;
72524;SDS011;60547;48.502;8.996;2023-01-28T01:50:08;13.52;;;7.57;;
72524;SDS011;60547;48.502;8.996;2023-01-28T01:52:40;14.73;;;7.18;;
72524;SDS011;60547;48.502;8.996;2023-01-28T01:55:13;14.77;;;6.90;;
72524;SDS011;60547;48.502;8.996;2023-01-28T01:57:43;11.80;;;6.53;;
72524;SDS011;60547;48.502;8.996;2023-01-28T02:00:11;12.02;;;6.07;;
72524;SDS011;60547;48.502;8.996;2023-01-28T02:02:38;12.18;;;7.07;;
72524;SDS011;60547;48.502;8.996;2023-01-28T02:05:06;11.35;;;6.10;;
72524;SDS011;60547;48.502;8.996;2023-01-28T02:07:39;12.30;;;6.25;;
72524;SDS011;60547;48.502;8.996;2023-01-28T02:10:07;12.68;;;7.28;;
72524;SDS011;60547;48.502;8.996;2023-01-28T02:12:35;14.40;;;6.63;;
72524;SDS011;60547;48.502;8.996;2023-01-28T02:15:08;12.82;;;6.25;;
72524;SDS011;60547;48.502;8.996;2023-01-28T02:17:38;11.88;;;6.95;;
72524;SDS011;60547;48.502;8.996;2023-01-28T02:31:27;11.65;;;6.47;;
72524;SDS011;60547;48.502;8.996;2023-01-28T02:42:01;10.35;;;5.40;;
72524;SDS011;60547;48.502;8.996;2023-01-28T02:44:31;12.20;;;5.68;;
72524;SDS011;60547;48.502;8.996;2023-01-28T02:46:57;13.13;;;6.20;;
72524;SDS011;60547;48.502;8.996;2023-01-28T02:49:51;11.50;;;6.22;;
72524;SDS011;60547;48.502;8.996;2023-01-28T02:52:40;11.15;;;5.60;;
72524;SDS011;60547;48.502;8.996;2023-01-28T03:01:19;11.05;;;5.47;;
72524;SDS011;60547;48.502;8.996;2023-01-28T03:03:57;10.05;;;5.15;;
72524;SDS011;60547;48.502;8.996;2023-01-28T03:06:48;11.98;;;5.55;;
72524;SDS011;60547;48.502;8.996;2023-01-28T03:09:14;10.25;;;5.78;;
72524;SDS011;60547;48.502;8.996;2023-01-28T03:11:54;10.85;;;5.15;;
72524;SDS011;60547;48.502;8.996;2023-01-28T03:14:45;10.30;;;5.40;;
72524;SDS011;60547;48.502;8.996;2023-01-28T03:17:47;10.95;;;4.95;;
72524;SDS011;60547;48.502;8.996;2023-01-28T03:20:37;10.02;;;5.50;;
72524;SDS011;60547;48.502;8.996;2023-01-28T03:23:28;11.15;;;5.70;;
72524;SDS011;60547;48.502;8.996;2023-01-28T03:26:20;10.88;;;5.30;;
72524;SDS011;60547;48.502;8.996;2023-01-28T03:29:08;11.95;;;6.20;;
72524;SDS011;60547;48.502;8.996;2023-01-28T03:31:56;12.75;;;5.35;;
72524;SDS011;60547;48.502;8.996;2023-01-28T03:34:42;10.07;;;5.15;;
72524;SDS011;60547;48.502;8.996;2023-01-28T03:37:28;10.15;;;5.10;;
72524;SDS011;60547;48.502;8.996;2023-01-28T03:39:54;12.15;;;5.82;;
72524;SDS011;60547;48.502;8.996;2023-01-28T03:42:22;10.88;;;5.35;;
72524;SDS011;60547;48.502;8.996;2023-01-28T03:44:48;10.88;;;5.88;;
72524;SDS011;60547;48.502;8.996;2023-01-28T03:47:17;10.63;;;6.00;;
72524;SDS011;60547;48.502;8.996;2023-01-28T03:49:45;10.60;;;5.40;;
72524;SDS011;60547;48.502;8.996;2023-01-28T03:52:16;10.93;;;5.53;;
72524;SDS011;60547;48.502;8.996;2023-01-28T03:54:43;9.63;;;5.25;;
72524;SDS011;60547;48.502;8.996;2023-01-28T03:57:16;12.20;;;5.45;;
72524;SDS011;60547;48.502;8.996;2023-01-28T03:59:46;10.60;;;5.28;;
72524;SDS011;60547;48.502;8.996;2023-01-28T04:02:14;11.35;;;5.53;;
72524;SDS011;60547;48.502;8.996;2023-01-28T04:04:40;10.02;;;4.30;;
72524;SDS011;60547;48.502;8.996;2023-01-28T04:07:07;10.65;;;4.80;;
72524;SDS011;60547;48.502;8.996;2023-01-28T04:09:36;9.48;;;5.30;;
72524;SDS011;60547;48.502;8.996;2023-01-28T04:12:05;10.48;;;4.90;;
72524;SDS011;60547;48.502;8.996;2023-01-28T04:14:31;8.68;;;4.90;;
72524;SDS011;60547;48.502;8.996;2023-01-28T04:16:57;10.25;;;5.18;;
72524;SDS011;60547;48.502;8.996;2023-01-28T04:19:23;9.30;;;5.22;;
72524;SDS011;60547;48.502;8.996;2023-01-28T04:21:50;11.65;;;5.50;;
72524;SDS011;60547;48.502;8.996;2023-01-28T04:24:18;9.98;;;5.38;;
72524;SDS011;60547;48.502;8.996;2023-01-28T04:26:44;10.82;;;5.25;;
72524;SDS011;60547;48.502;8.996;2023-01-28T04:29:12;10.45;;;5.35;;
72524;SDS011;60547;48.502;8.996;2023-01-28T04:31:38;10.10;;;5.22;;
72524;SDS011;60547;48.502;8.996;2023-01-28T04:34:03;10.75;;;5.78;;
72524;SDS011;60547;48.502;8.996;2023-01-28T04:36:29;9.80;;;5.50;;
72524;SDS011;60547;48.502;8.996;2023-01-28T04:38:54;10.98;;;5.10;;
72524;SDS011;60547;48.502;8.996;2023-01-28T04:41:20;10.57;;;5.25;;
72524;SDS011;60547;48.502;8.996;2023-01-28T04:43:45;10.35;;;5.60;;
72524;SDS011;60547;48.502;8.996;2023-01-28T04:46:13;10.45;;;5.28;;
72524;SDS011;60547;48.502;8.996;2023-01-28T04:48:43;9.27;;;4.50;;
72524;SDS011;60547;48.502;8.996;2023-01-28T04:51:08;10.23;;;6.00;;
72524;SDS011;60547;48.502;8.996;2023-01-28T04:53:34;11.07;;;5.60;;
72524;SDS011;60547;48.502;8.996;2023-01-28T04:55:59;9.15;;;4.90;;
72524;SDS011;60547;48.502;8.996;2023-01-28T04:58:25;9.63;;;5.65;;
72524;SDS011;60547;48.502;8.996;2023-01-28T05:00:54;10.35;;;5.20;;
72524;SDS011;60547;48.502;8.996;2023-01-28T05:03:24;9.43;;;5.28;;
72524;SDS011;60547;48.502;8.996;2023-01-28T05:05:50;9.55;;;4.47;;
72524;SDS011;60547;48.502;8.996;2023-01-28T05:08:18;7.88;;;4.53;;
72524;SDS011;60547;48.502;8.996;2023-01-28T05:10:43;9.05;;;4.50;;
72524;SDS011;60547;48.502;8.996;2023-01-28T05:13:09;9.77;;;5.32;;
72524;SDS011;60547;48.502;8.996;2023-01-28T05:15:34;8.93;;;5.25;;
72524;SDS011;60547;48.502;8.996;2023-01-28T05:18:00;8.60;;;4.47;;
72524;SDS011;60547;48.502;8.996;2023-01-28T05:20:25;10.18;;;5.07;;
72524;SDS011;60547;48.502;8.996;2023-01-28T05:22:51;9.13;;;4.25;;
72524;SDS011;60547;48.502;8.996;2023-01-28T05:25:16;9.90;;;4.93;;
72524;SDS011;60547;48.502;8.996;2023-01-28T05:27:42;8.90;;;4.70;;
72524;SDS011;60547;48.502;8.996;2023-01-28T05:30:11;9.25;;;4.82;;
72524;SDS011;60547;48.502;8.996;2023-01-28T05:32:39;8.88;;;4.80;;
72524;SDS011;60547;48.502;8.996;2023-01-28T05:35:05;9.63;;;4.80;;
72524;SDS011;60547;48.502;8.996;2023-01-28T05:37:30;11.90;;;5.22;;
72524;SDS011;60547;48.502;8.996;2023-01-28T05:39:56;9.07;;;4.72;;
72524;SDS011;60547;48.502;8.996;2023-01-28T05:42:27;10.18;;;5.18;;
72524;SDS011;60547;48.502;8.996;2023-01-28T05:44:55;9.73;;;4.75;;
72524;SDS011;60547;48.502;8.996;2023-01-28T05:47:26;10.40;;;5.22;;
72524;SDS011;60547;48.502;8.996;2023-01-28T05:49:51;11.10;;;5.25;;
72524;SDS011;60547;48.502;8.996;2023-01-28T05:52:17;9.82;;;5.18;;
72524;SDS011;60547;48.502;8.996;2023-01-28T05:54:42;10.13;;;5.38;;
72524;SDS011;60547;48.502;8.996;2023-01-28T05:57:08;8.90;;;5.43;;
72524;SDS011;60547;48.502;8.996;2023-01-28T05:59:38;9.07;;;4.57;;
72524;SDS011;60547;48.502;8.996;2023-01-28T06:02:04;11.73;;;4.95;;
72524;SDS011;60547;48.502;8.996;2023-01-28T06:04:29;10.13;;;4.97;;
72524;SDS011;60547;48.502;8.996;2023-01-28T06:06:57;10.32;;;5.72;;
72524;SDS011;60547;48.502;8.996;2023-01-28T06:09:23;10.80;;;5.50;;
72524;SDS011;60547;48.502;8.996;2023-01-28T06:11:51;11.55;;;5.18;;
72524;SDS011;60547;48.502;8.996;2023-01-28T06:14:17;8.05;;;4.32;;
72524;SDS011;60547;48.502;8.996;2023-01-28T06:16:42;9.27;;;4.45;;
72524;SDS011;60547;48.502;8.996;2023-01-28T06:19:08;10.18;;;5.00;;
72524;SDS011;60547;48.502;8.996;2023-01-28T06:21:33;9.18;;;5.25;;
72524;SDS011;60547;48.502;8.996;2023-01-28T06:24:05;9.27;;;4.90;;
72524;SDS011;60547;48.502;8.996;2023-01-28T06:26:30;9.10;;;4.97;;
72524;SDS011;60547;48.502;8.996;2023-01-28T06:28:56;8.52;;;4.75;;
72524;SDS011;60547;48.502;8.996;2023-01-28T06:31:21;9.05;;;5.28;;
72524;SDS011;60547;48.502;8.996;2023-01-28T06:33:49;9.30;;;4.97;;
72524;SDS011;60547;48.502;8.996;2023-01-28T06:36:14;10.02;;;4.95;;
72524;SDS011;60547;48.502;8.996;2023-01-28T06:38:40;9.90;;;4.70;;
72524;SDS011;60547;48.502;8.996;2023-01-28T06:41:05;9.68;;;5.00;;
72524;SDS011;60547;48.502;8.996;2023-01-28T06:43:31;10.02;;;4.80;;
72524;SDS011;60547;48.502;8.996;2023-01-28T06:45:56;9.70;;;4.85;;
72524;SDS011;60547;48.502;8.996;2023-01-28T06:48:22;10.43;;;4.88;;
72524;SDS011;60547;48.502;8.996;2023-01-28T06:50:50;8.45;;;4.97;;
72524;SDS011;60547;48.502;8.996;2023-01-28T06:53:16;9.43;;;5.15;;
72524;SDS011;60547;48.502;8.996;2023-01-28T06:55:42;9.65;;;5.18;;
72524;SDS011;60547;48.502;8.996;2023-01-28T06:58:08;12.52;;;5.18;;
72524;SDS011;60547;48.502;8.996;2023-01-28T07:00:33;8.68;;;5.15;;
72524;SDS011;60547;48.502;8.996;2023-01-28T07:03:06;9.63;;;4.47;;
72524;SDS011;60547;48.502;8.996;2023-01-28T07:05:32;9.20;;;5.00;;
72524;SDS011;60547;48.502;8.996;2023-01-28T07:07:57;9.80;;;5.18;;
72524;SDS011;60547;48.502;8.996;2023-01-28T07:10:23;9.45;;;5.38;;
72524;SDS011;60547;48.502;8.996;2023-01-28T07:12:48;9.38;;;5.45;;
72524;SDS011;60547;48.502;8.996;2023-01-28T07:15:14;10.88;;;5.90;;
72524;SDS011;60547;48.502;8.996;2023-01-28T07:17:40;10.00;;;5.85;;
72524;SDS011;60547;48.502;8.996;2023-01-28T07:20:06;9.13;;;5.70;;
72524;SDS011;60547;48.502;8.996;2023-01-28T07:22:33;9.93;;;5.85;;
72524;SDS011;60547;48.502;8.996;2023-01-28T07:24:58;10.43;;;6.20;;
72524;SDS011;60547;48.502;8.996;2023-01-28T07:27:25;11.77;;;6.80;;
72524;SDS011;60547;48.502;8.996;2023-01-28T07:29:51;10.95;;;5.93;;
72524;SDS011;60547;48.502;8.996;2023-01-28T07:32:16;9.77;;;5.22;;
72524;SDS011;60547;48.502;8.996;2023-01-28T07:34:42;11.30;;;5.60;;
72524;SDS011;60547;48.502;8.996;2023-01-28T07:37:08;13.32;;;6.55;;
72524;SDS011;60547;48.502;8.996;2023-01-28T07:39:33;12.23;;;6.22;;
72524;SDS011;60547;48.502;8.996;2023-01-28T07:41:59;12.73;;;6.32;;
72524;SDS011;60547;48.502;8.996;2023-01-28T07:44:25;10.48;;;5.38;;
72524;SDS011;60547;48.502;8.996;2023-01-28T07:46:53;10.30;;;5.68;;
72524;SDS011;60547;48.502;8.996;2023-01-28T07:49:21;11.18;;;5.78;;
72524;SDS011;60547;48.502;8.996;2023-01-28T07:51:47;9.80;;;5.22;;
72524;SDS011;60547;48.502;8.996;2023-01-28T07:54:14;11.05;;;6.20;;
72524;SDS011;60547;48.502;8.996;2023-01-28T07:56:40;21.08;;;10.88;;
72524;SDS011;60547;48.502;8.996;2023-01-28T07:59:11;19.73;;;10.02;;
72524;SDS011;60547;48.502;8.996;2023-01-28T08:01:37;28.48;;;13.98;;
72524;SDS011;60547;48.502;8.996;2023-01-28T08:04:02;18.67;;;9.13;;
72524;SDS011;60547;48.502;8.996;2023-01-28T08:06:33;14.60;;;6.25;;
72524;SDS011;60547;48.502;8.996;2023-01-28T08:09:17;17.27;;;8.13;;
72524;SDS011;60547;48.502;8.996;2023-01-28T08:11:42;13.98;;;7.63;;
72524;SDS011;60547;48.502;8.996;2023-01-28T08:14:09;12.07;;;8.00;;
72524;SDS011;60547;48.502;8.996;2023-01-28T08:16:40;14.05;;;6.53;;
72524;SDS011;60547;48.502;8.996;2023-01-28T08:19:08;19.67;;;10.20;;
72524;SDS011;60547;48.502;8.996;2023-01-28T08:21:40;14.73;;;7.78;;
72524;SDS011;60547;48.502;8.996;2023-01-28T08:24:08;11.70;;;6.63;;
72524;SDS011;60547;48.502;8.996;2023-01-28T08:26:36;11.32;;;6.07;;
72524;SDS011;60547;48.502;8.996;2023-01-28T08:29:02;10.52;;;5.38;;
72524;SDS011;60547;48.502;8.996;2023-01-28T08:31:29;10.68;;;5.63;;
72524;SDS011;60547;48.502;8.996;2023-01-28T08:33:55;11.00;;;5.47;;
72524;SDS011;60547;48.502;8.996;2023-01-28T08:36:20;11.40;;;5.35;;
72524;SDS011;60547;48.502;8.996;2023-01-28T08:38:50;9.60;;;5.57;;
72524;SDS011;60547;48.502;8.996;2023-01-28T08:41:19;13.63;;;7.30;;
72524;SDS011;60547;48.502;8.996;2023-01-28T08:43:49;11.85;;;6.20;;
72524;SDS011;60547;48.502;8.996;2023-01-28T08:46:15;9.82;;;5.93;;
72524;SDS011;60547;48.502;8.996;2023-01-28T08:48:43;11.15;;;5.50;;
72524;SDS011;60547;48.502;8.996;2023-01-28T08:51:14;12.77;;;6.00;;
72524;SDS011;60547;48.502;8.996;2023-01-28T08:53:39;9.50;;;5.43;;
72524;SDS011;60547;48.502;8.996;2023-01-28T08:56:05;9.88;;;5.30;;
72524;SDS011;60547;48.502;8.996;2023-01-28T08:58:31;9.73;;;5.35;;
72524;SDS011;60547;48.502;8.996;2023-01-28T09:00:56;13.35;;;6.55;;
72524;SDS011;60547;48.502;8.996;2023-01-28T09:03:22;11.73;;;6.47;;
72524;SDS011;60547;48.502;8.996;2023-01-28T09:05:47;12.30;;;6.63;;
72524;SDS011;60547;48.502;8.996;2023-01-28T09:08:17;12.45;;;6.57;;
72524;SDS011;60547;48.502;8.996;2023-01-28T09:10:45;10.48;;;5.85;;
72524;SDS011;60547;48.502;8.996;2023-01-28T09:13:18;10.43;;;6.15;;
72524;SDS011;60547;48.502;8.996;2023-01-28T09:15:43;10.95;;;5.90;;
72524;SDS011;60547;48.502;8.996;2023-01-28T09:18:12;12.00;;;6.57;;
72524;SDS011;60547;48.502;8.996;2023-01-28T09:20:46;10.60;;;6.40;;
72524;SDS011;60547;48.502;8.996;2023-01-28T09:23:17;14.70;;;8.07;;
72524;SDS011;60547;48.502;8.996;2023-01-28T09:25:45;16.40;;;9.23;;
72524;SDS011;60547;48.502;8.996;2023-01-28T09:28:14;14.18;;;7.47;;
72524;SDS011;60547;48.502;8.996;2023-01-28T09:30:39;12.77;;;6.10;;
72524;SDS011;60547;48.502;8.996;2023-01-28T09:33:05;12.27;;;6.53;;
72524;SDS011;60547;48.502;8.996;2023-01-28T09:35:34;12.05;;;6.25;;
72524;SDS011;60547;48.502;8.996;2023-01-28T09:38:01;10.32;;;6.10;;
72524;SDS011;60547;48.502;8.996;2023-01-28T09:45:54;16.83;;;8.65;;
72524;SDS011;60547;48.502;8.996;2023-01-28T09:48:29;11.30;;;5.88;;
72524;SDS011;60547;48.502;8.996;2023-01-28T09:51:02;12.13;;;5.97;;
72524;SDS011;60547;48.502;8.996;2023-01-28T09:53:42;11.48;;;5.70;;
72524;SDS011;60547;48.502;8.996;2023-01-28T09:56:14;11.32;;;6.82;;
72524;SDS011;60547;48.502;8.996;2023-01-28T09:58:52;9.65;;;5.57;;
72524;SDS011;60547;48.502;8.996;2023-01-28T10:04:18;10.20;;;5.68;;
72524;SDS011;60547;48.502;8.996;2023-01-28T10:10:16;10.23;;;5.75;;
72524;SDS011;60547;48.502;8.996;2023-01-28T10:18:37;11.43;;;5.38;;
72524;SDS011;60547;48.502;8.996;2023-01-28T10:21:21;11.45;;;6.60;;
72524;SDS011;60547;48.502;8.996;2023-01-28T10:24:16;10.43;;;5.40;;
72524;SDS011;60547;48.502;8.996;2023-01-28T10:27:23;9.68;;;4.82;;
72524;SDS011;60547;48.502;8.996;2023-01-28T10:29:59;11.73;;;5.68;;
72524;SDS011;60547;48.502;8.996;2023-01-28T10:33:00;11.48;;;5.97;;
72524;SDS011;60547;48.502;8.996;2023-01-28T10:35:34;11.15;;;5.60;;
72524;SDS011;60547;48.502;8.996;2023-01-28T10:38:03;9.82;;;5.35;;
72524;SDS011;60547;48.502;8.996;2023-01-28T10:40:38;9.32;;;5.10;;
72524;SDS011;60547;48.502;8.996;2023-01-28T10:43:07;10.90;;;5.63;;
72524;SDS011;60547;48.502;8.996;2023-01-28T10:45:35;13.02;;;6.70;;
72524;SDS011;60547;48.502;8.996;2023-01-28T10:48:52;11.23;;;6.45;;
72524;SDS011;60547;48.502;8.996;2023-01-28T10:51:10;12.98;;;5.85;;
72524;SDS011;60547;48.502;8.996;2023-01-28T10:53:49;14.00;;;7.95;;
72524;SDS011;60547;48.502;8.996;2023-01-28T10:56:24;10.52;;;6.28;;
72524;SDS011;60547;48.502;8.996;2023-01-28T11:01:38;12.38;;;6.25;;
72524;SDS011;60547;48.502;8.996;2023-01-28T11:04:04;14.13;;;8.73;;
72524;SDS011;60547;48.502;8.996;2023-01-28T11:06:30;16.40;;;7.88;;
72524;SDS011;60547;48.502;8.996;2023-01-28T11:08:56;11.75;;;6.78;;
72524;SDS011;60547;48.502;8.996;2023-01-28T11:11:25;12.45;;;6.25;;
72524;SDS011;60547;48.502;8.996;2023-01-28T11:13:52;11.13;;;6.57;;
72524;SDS011;60547;48.502;8.996;2023-01-28T11:21:36;15.35;;;6.45;;
72524;SDS011;60547;48.502;8.996;2023-01-28T11:24:06;10.50;;;5.30;;
72524;SDS011;60547;48.502;8.996;2023-01-28T11:26:42;9.50;;;5.68;;
72524;SDS011;60547;48.502;8.996;2023-01-28T11:29:23;13.80;;;6.80;;
72524;SDS011;60547;48.502;8.996;2023-01-28T11:31:57;11.85;;;5.68;;
72524;SDS011;60547;48.502;8.996;2023-01-28T11:34:25;10.38;;;5.80;;
72524;SDS011;60547;48.502;8.996;2023-01-28T11:36:54;9.63;;;5.55;;
72524;SDS011;60547;48.502;8.996;2023-01-28T11:39:28;9.75;;;5.28;;
72524;SDS011;60547;48.502;8.996;2023-01-28T11:41:54;11.05;;;5.32;;
72524;SDS011;60547;48.502;8.996;2023-01-28T11:44:39;9.70;;;5.20;;
72524;SDS011;60547;48.502;8.996;2023-01-28T11:55:36;10.63;;;5.40;;
72524;SDS011;60547;48.502;8.996;2023-01-28T12:08:45;9.52;;;5.10;;
72524;SDS011;60547;48.502;8.996;2023-01-28T12:20:05;11.30;;;5.10;;
72524;SDS011;60547;48.502;8.996;2023-01-28T12:23:02;11.45;;;5.53;;
72524;SDS011;60547;48.502;8.996;2023-01-28T12:28:15;10.30;;;5.28;;
72524;SDS011;60547;48.502;8.996;2023-01-28T12:38:58;13.20;;;6.18;;
72524;SDS011;60547;48.502;8.996;2023-01-28T12:41:46;12.90;;;6.28;;
72524;SDS011;60547;48.502;8.996;2023-01-28T12:44:23;12.00;;;6.93;;
72524;SDS011;60547;48.502;8.996;2023-01-28T12:47:11;11.35;;;5.63;;
72524;SDS011;60547;48.502;8.996;2023-01-28T12:49:50;13.57;;;7.95;;
72524;SDS011;60547;48.502;8.996;2023-01-28T12:52:29;11.93;;;6.45;;
72524;SDS011;60547;48.502;8.996;2023-01-28T12:55:19;11.07;;;5.97;;
72524;SDS011;60547;48.502;8.996;2023-01-28T12:57:59;12.02;;;6.22;;
72524;SDS011;60547;48.502;8.996;2023-01-28T13:00:36;10.90;;;5.82;;
72524;SDS011;60547;48.502;8.996;2023-01-28T13:05:56;12.65;;;5.78;;
72524;SDS011;60547;48.502;8.996;2023-01-28T13:08:27;11.57;;;6.22;;
72524;SDS011;60547;48.502;8.996;2023-01-28T13:10:54;13.30;;;6.90;;
72524;SDS011;60547;48.502;8.996;2023-01-28T13:13:29;11.10;;;6.80;;
72524;SDS011;60547;48.502;8.996;2023-01-28T13:15:57;11.55;;;5.90;;
72524;SDS011;60547;48.502;8.996;2023-01-28T13:21:16;13.35;;;7.53;;
72524;SDS011;60547;48.502;8.996;2023-01-28T13:23:48;13.52;;;6.07;;
72524;SDS011;60547;48.502;8.996;2023-01-28T13:28:43;12.27;;;6.38;;
72524;SDS011;60547;48.502;8.996;2023-01-28T13:31:14;12.93;;;6.70;;
72524;SDS011;60547;48.502;8.996;2023-01-28T13:33:46;12.48;;;6.78;;
72524;SDS011;60547;48.502;8.996;2023-01-28T13:36:31;13.27;;;6.30;;
72524;SDS011;60547;48.502;8.996;2023-01-28T13:41:39;14.48;;;7.03;;
72524;SDS011;60547;48.502;8.996;2023-01-28T13:46:45;13.25;;;6.82;;
72524;SDS011;60547;48.502;8.996;2023-01-28T13:49:12;10.63;;;6.30;;
72524;SDS011;60547;48.502;8.996;2023-01-28T13:51:58;15.25;;;6.47;;
72524;SDS011;60547;48.502;8.996;2023-01-28T13:54:39;14.23;;;6.93;;
72524;SDS011;60547;48.502;8.996;2023-01-28T13:57:15;14.60;;;6.80;;
72524;SDS011;60547;48.502;8.996;2023-01-28T14:08:37;12.95;;;6.65;;
72524;SDS011;60547;48.502;8.996;2023-01-28T14:17:42;13.15;;;6.70;;
72524;SDS011;60547;48.502;8.996;2023-01-28T14:19:59;15.75;;;9.75;;
72524;SDS011;60547;48.502;8.996;2023-01-28T14:22:26;13.23;;;6.90;;
72524;SDS011;60547;48.502;8.996;2023-01-28T14:24:51;12.70;;;6.85;;
72524;SDS011;60547;48.502;8.996;2023-01-28T14:27:21;16.40;;;9.68;;
72524;SDS011;60547;48.502;8.996;2023-01-28T14:32:32;14.38;;;5.97;;
72524;SDS011;60547;48.502;8.996;2023-01-28T14:34:59;13.35;;;6.97;;
72524;SDS011;60547;48.502;8.996;2023-01-28T14:37:31;13.93;;;7.03;;
72524;SDS011;60547;48.502;8.996;2023-01-28T14:39:59;14.20;;;7.18;;
72524;SDS011;60547;48.502;8.996;2023-01-28T14:42:28;16.02;;;8.30;;
72524;SDS011;60547;48.502;8.996;2023-01-28T14:52:50;13.23;;;7.30;;
72524;SDS011;60547;48.502;8.996;2023-01-28T15:00:52;19.13;;;9.77;;
72524;SDS011;60547;48.502;8.996;2023-01-28T15:03:19;18.35;;;10.13;;
72524;SDS011;60547;48.502;8.996;2023-01-28T15:05:44;22.15;;;11.10;;
72524;SDS011;60547;48.502;8.996;2023-01-28T15:08:22;22.50;;;10.48;;
72524;SDS011;60547;48.502;8.996;2023-01-28T15:10:48;13.90;;;6.78;;
72524;SDS011;60547;48.502;8.996;2023-01-28T15:13:26;14.23;;;6.68;;
72524;SDS011;60547;48.502;8.996;2023-01-28T15:15:54;14.02;;;7.93;;
72524;SDS011;60547;48.502;8.996;2023-01-28T15:18:45;11.98;;;6.20;;
72524;SDS011;60547;48.502;8.996;2023-01-28T15:21:11;12.60;;;6.63;;
72524;SDS011;60547;48.502;8.996;2023-01-28T15:23:38;13.25;;;6.60;;
72524;SDS011;60547;48.502;8.996;2023-01-28T15:26:06;12.55;;;6.18;;
72524;SDS011;60547;48.502;8.996;2023-01-28T15:28:41;10.10;;;5.35;;
72524;SDS011;60547;48.502;8.996;2023-01-28T15:34:12;10.43;;;4.72;;
72524;SDS011;60547;48.502;8.996;2023-01-28T15:36:39;9.07;;;4.45;;
72524;SDS011;60547;48.502;8.996;2023-01-28T15:39:12;8.93;;;4.05;;
72524;SDS011;60547;48.502;8.996;2023-01-28T15:41:39;9.15;;;4.38;;
72524;SDS011;60547;48.502;8.996;2023-01-28T15:44:21;9.05;;;4.20;;
72524;SDS011;60547;48.502;8.996;2023-01-28T15:46:56;11.23;;;5.10;;
72524;SDS011;60547;48.502;8.996;2023-01-28T15:49:33;11.25;;;4.75;;
72524;SDS011;60547;48.502;8.996;2023-01-28T15:52:01;7.85;;;4.55;;
72524;SDS011;60547;48.502;8.996;2023-01-28T15:54:27;10.13;;;4.53;;
72524;SDS011;60547;48.502;8.996;2023-01-28T15:56:54;7.88;;;4.57;;
72524;SDS011;60547;48.502;8.996;2023-01-28T15:59:27;9.15;;;4.30;;
72524;SDS011;60547;48.502;8.996;2023-01-28T16:02:12;8.13;;;4.03;;
72524;SDS011;60547;48.502;8.996;2023-01-28T16:04:57;10.80;;;4.97;;
72524;SDS011;60547;48.502;8.996;2023-01-28T16:07:28;8.07;;;4.32;;
72524;SDS011;60547;48.502;8.996;2023-01-28T16:09:57;7.25;;;3.78;;
72524;SDS011;60547;48.502;8.996;2023-01-28T16:12:24;10.00;;;4.75;;
72524;SDS011;60547;48.502;8.996;2023-01-28T16:17:26;8.05;;;4.57;;
72524;SDS011;60547;48.502;8.996;2023-01-28T16:19:56;8.02;;;4.60;;
72524;SDS011;60547;48.502;8.996;2023-01-28T16:22:35;10.23;;;4.28;;
72524;SDS011;60547;48.502;8.996;2023-01-28T16:25:02;9.02;;;4.85;;
72524;SDS011;60547;48.502;8.996;2023-01-28T16:27:48;9.05;;;5.82;;
72524;SDS011;60547;48.502;8.996;2023-01-28T16:30:14;10.52;;;5.75;;
72524;SDS011;60547;48.502;8.996;2023-01-28T16:32:40;10.13;;;5.32;;
72524;SDS011;60547;48.502;8.996;2023-01-28T16:35:11;8.82;;;4.78;;
72524;SDS011;60547;48.502;8.996;2023-01-28T16:37:47;10.25;;;5.32;;
72524;SDS011;60547;48.502;8.996;2023-01-28T16:40:14;9.25;;;4.90;;
72524;SDS011;60547;48.502;8.996;2023-01-28T16:42:41;9.05;;;4.72;;
72524;SDS011;60547;48.502;8.996;2023-01-28T16:45:18;10.95;;;5.10;;
72524;SDS011;60547;48.502;8.996;2023-01-28T16:47:46;10.40;;;4.68;;
72524;SDS011;60547;48.502;8.996;2023-01-28T16:50:12;12.00;;;5.80;;
72524;SDS011;60547;48.502;8.996;2023-01-28T16:52:39;11.13;;;5.10;;
72524;SDS011;60547;48.502;8.996;2023-01-28T16:55:10;10.00;;;5.70;;
72524;SDS011;60547;48.502;8.996;2023-01-28T16:57:38;10.13;;;5.63;;
72524;SDS011;60547;48.502;8.996;2023-01-28T17:00:04;9.85;;;5.40;;
72524;SDS011;60547;48.502;8.996;2023-01-28T17:02:30;9.02;;;5.82;;
72524;SDS011;60547;48.502;8.996;2023-01-28T17:04:56;11.55;;;4.93;;
72524;SDS011;60547;48.502;8.996;2023-01-28T17:07:21;9.55;;;4.93;;
72524;SDS011;60547;48.502;8.996;2023-01-28T17:09:48;13.15;;;7.50;;
72524;SDS011;60547;48.502;8.996;2023-01-28T17:12:14;8.65;;;5.47;;
72524;SDS011;60547;48.502;8.996;2023-01-28T17:14:39;10.70;;;5.80;;
72524;SDS011;60547;48.502;8.996;2023-01-28T17:17:05;9.18;;;5.75;;
72524;SDS011;60547;48.502;8.996;2023-01-28T17:19:30;11.38;;;5.70;;